createdAt,value
2022-11-13T08:53:05.850Z,11.10
2022-11-13T08:55:52.215Z,11.20
2022-11-13T08:58:37.604Z,11.20
2022-11-13T09:01:23.087Z,11.20
2022-11-13T09:04:08.750Z,11.30
2022-11-13T09:06:54.664Z,11.30
2022-11-13T09:09:39.995Z,11.30
2022-11-13T09:12:25.395Z,11.30
2022-11-13T09:15:12.238Z,11.30
2022-11-13T09:18:02.842Z,11.30
2022-11-13T09:20:48.172Z,11.40
2022-11-13T09:23:33.754Z,11.40
2022-11-13T09:26:19.280Z,11.40
2022-11-13T09:29:04.762Z,11.50
2022-11-13T09:31:50.488Z,11.50
2022-11-13T09:34:36.202Z,11.60
2022-11-13T09:37:21.800Z,11.70
2022-11-13T09:40:11.957Z,11.70
2022-11-13T09:42:58.351Z,11.80
2022-11-13T09:45:44.575Z,11.90
2022-11-13T14:22:16.447Z,10.60
2022-11-13T14:25:02.499Z,10.40
2022-11-13T14:27:48.308Z,10.30
2022-11-13T14:30:33.882Z,10.30
2022-11-13T14:33:29.546Z,10.20
2022-11-13T14:36:27.481Z,10.10
2022-11-13T14:39:30.636Z,10.10
2022-11-13T14:42:37.533Z,10.00
2022-11-13T14:45:31.845Z,9.90
2022-11-13T14:48:31.038Z,9.80
2022-11-13T14:51:30.557Z,9.80
2022-11-13T14:55:14.057Z,9.70
2022-11-13T14:57:49.858Z,9.70
2022-11-13T15:00:38.183Z,9.50
2022-11-13T15:03:25.155Z,9.50
2022-11-13T15:06:26.128Z,9.40
2022-11-13T15:09:16.060Z,9.40
2022-11-13T15:12:01.805Z,9.40
2022-11-13T15:14:47.588Z,9.40
2022-11-13T15:17:33.431Z,9.40
2022-11-13T15:20:26.621Z,9.30
2022-11-13T15:23:16.031Z,9.30
2022-11-13T15:26:01.677Z,9.30
2022-11-13T15:28:47.053Z,9.20
2022-11-13T15:31:41.566Z,9.30
2022-11-13T15:34:27.088Z,9.30
2022-11-13T15:37:16.771Z,9.30
2022-11-13T15:40:02.371Z,9.30
2022-11-13T15:42:48.080Z,9.20
2022-11-13T15:45:33.596Z,9.20
2022-11-13T15:48:19.052Z,9.10
2022-11-13T15:51:05.264Z,9.10
2022-11-13T15:54:38.840Z,9.10
2022-11-13T15:57:30.008Z,9.10
2022-11-13T16:00:26.037Z,9.00
2022-11-13T16:03:11.682Z,9.00
2022-11-13T16:05:59.766Z,9.00
2022-11-13T16:08:46.397Z,9.00
2022-11-13T16:11:34.258Z,9.00
2022-11-13T16:14:24.989Z,9.00
2022-11-13T16:17:18.092Z,9.00
2022-11-13T16:20:04.257Z,9.00
2022-11-13T16:22:50.158Z,9.00
2022-11-13T16:25:35.492Z,9.00
2022-11-13T16:28:21.197Z,8.90
2022-11-13T16:31:07.004Z,8.90
2022-11-13T16:33:52.750Z,8.90
2022-11-13T16:36:38.409Z,8.90
2022-11-13T16:39:23.641Z,8.90
2022-11-13T16:42:09.897Z,8.90
2022-11-13T16:44:55.323Z,8.90
2022-11-13T16:47:40.737Z,8.90
2022-11-13T16:50:32.319Z,8.90
2022-11-13T16:53:18.086Z,8.80
2022-11-13T16:56:23.620Z,8.80
2022-11-13T16:59:11.019Z,8.80
2022-11-13T17:01:57.160Z,8.70
2022-11-13T17:04:43.774Z,8.70
2022-11-13T17:07:29.500Z,8.70
2022-11-13T17:10:35.021Z,8.60
2022-11-13T17:13:20.816Z,8.60
2022-11-13T17:16:07.223Z,8.60
2022-11-13T17:18:53.516Z,8.50
2022-11-13T17:21:42.901Z,8.50
2022-11-13T17:24:29.661Z,8.50
2022-11-13T17:27:15.246Z,8.40
2022-11-13T17:30:01.669Z,8.40
2022-11-13T17:32:47.535Z,8.40
2022-11-13T17:35:33.076Z,8.30
2022-11-13T17:38:18.553Z,8.30
2022-11-13T17:41:12.869Z,8.30
2022-11-13T17:44:01.205Z,8.30
2022-11-13T17:46:48.169Z,8.20
2022-11-13T17:49:34.046Z,8.20
2022-11-13T17:52:19.466Z,8.20
